• Join FlightAware (Why Join?)
  • Login
  • US Flag 
08:24PM EDT


 

Airport Tracker/Info


-or-


 

Live Flight TrackerFlight Track Log ✈ SKW6506 ✈ 05-Apr-2012 ✈ KLAX - KBOI

Flight Track Log - Related Links

Times and Time Zones

All times are in EDT time to prevent confusion due to time zone crossing. See the SKW6506 flight status page for this flight to view local times or setup timezone preferences in your user account.

Time Position Orientation Groundspeed Altitude Reporting Facility
EDT Latitude Longitude Course Direction KTS MPH feet Rate Location/Type
11:35AM 33.9724 -118.4157 248° West  Level FlightAware Approximate
11:36AM 33.9333 -118.5392 70° East  Level FlightAware Approximate
11:36AM 33.9500 -118.4833 261° West 185 213 2,100  Level Southern California TRACON
11:38AM 33.9353 -118.5975 291° West 242 278 5,600 2,820 Climbing Los Angeles Center
11:39AM 33.9608 -118.6758 338° Northwest 243 280 8,800 2,040 Climbing Los Angeles Center
11:40AM 34.0308 -118.7106 28° Northeast 237 273 9,700 1,560 Climbing Los Angeles Center
11:41AM 34.1092 -118.6603 17° North 229 264 12,000 1,440 Climbing Los Angeles Center
11:42AM 34.1850 -118.6322 343° North 278 320 12,600 1,140 Climbing Los Angeles Center
11:43AM 34.2739 -118.6653 343° North 295 339 14,300 1,800 Climbing Los Angeles Center
11:44AM 34.3631 -118.6981 344° North 310 357 16,300 1,920 Climbing Los Angeles Center
11:45AM 34.4564 -118.7311 343° North 331 381 18,200 1,800 Climbing Los Angeles Center
11:46AM 34.5536 -118.7669 342° North 347 399 19,900 1,560 Climbing Los Angeles Center
11:47AM 34.6528 -118.8056 341° North 361 415 21,400 1,320 Climbing Los Angeles Center
11:48AM 34.7667 -118.8522 343° North 374 430 22,600 1,320 Climbing Los Angeles Center
11:49AM 34.8722 -118.8911 347° North 379 436 24,100 1,260 Climbing Los Angeles Center
11:50AM 34.9758 -118.9200 345° North 397 457 25,200 1,140 Climbing Los Angeles Center
11:51AM 35.0856 -118.9567 344° North 408 470 26,400 1,140 Climbing Los Angeles Center
11:52AM 35.1953 -118.9961 344° North 413 475 27,500 960 Climbing Los Angeles Center
11:53AM 35.3111 -119.0358 345° North 413 475 28,400 900 Climbing Los Angeles Center
11:54AM 35.4250 -119.0731 351° North 413 475 29,300 960 Climbing Los Angeles Center
11:56AM 35.6622 -119.1208 354° North 425 489 31,300 900 Climbing Oakland Center
11:57AM 35.7814 -119.1358 353° North 430 495 32,000 300 Climbing Oakland Center
11:58AM 35.9047 -119.1536 353° North 430 495 32,000  Level Oakland Center
11:59AM 36.0281 -119.1711 354° North 430 495 32,000  Level Oakland Center
12:00PM 36.1533 -119.1886 354° North 441 507 32,000  Level Oakland Center
12:01PM 36.2789 -119.2039 354° North 447 514 32,000  Level Oakland Center
12:02PM 36.4000 -119.2192 352° North 447 514 32,000  Level Oakland Center
12:03PM 36.5233 -119.2394 354° North 447 514 32,000  Level Oakland Center
12:04PM 36.6447 -119.2550 354° North 447 514 32,000  Level Oakland Center
12:05PM 36.7681 -119.2703 354° North 447 514 32,000  Level Oakland Center
12:06PM 36.8914 -119.2856 353° North 447 514 32,000  Level Oakland Center
12:07PM 37.0189 -119.3061 354° North 447 514 32,000  Level Oakland Center
12:08PM 37.1422 -119.3217 353° North 447 514 32,000  Level Oakland Center
12:09PM 37.2717 -119.3422 355° North 447 514 32,000  Level Oakland Center
12:10PM 37.4014 -119.3578 354° North 453 521 32,000  Level Oakland Center
12:11PM 37.5267 -119.3733 358° North 453 521 32,000  Level Oakland Center
12:12PM 37.6478 -119.3786 353° North 463 533 32,000  Level Oakland Center
12:13PM 37.7753 -119.3994 353° North 463 533 32,000  Level Oakland Center
12:14PM 37.9028 -119.4181 354° North 463 533 32,000  Level Oakland Center
12:15PM 38.0281 -119.4336 351° North 463 533 32,000  Level Oakland Center
12:16PM 38.1453 -119.4578 355° North 450 518 32,000  Level Oakland Center
12:17PM 38.2747 -119.4708 354° North 450 518 32,000  Level Oakland Center
12:18PM 38.3958 -119.4869 353° North 445 512 32,000  Level Oakland Center
12:19PM 38.5108 -119.5058 13° North 429 494 32,000  Level Oakland Center
12:20PM 38.6314 -119.4714 16° North 421 484 32,000  Level Oakland Center
12:21PM 38.7558 -119.4261 17° North 434 499 32,000  Level Oakland Center
12:22PM 38.8783 -119.3783 16° North 445 512 32,000  Level Oakland Center
12:23PM 39.0028 -119.3328 17° North 451 519 32,000  Level Oakland Center
12:24PM 39.1356 -119.2814 17° North 451 519 32,000  Level Oakland Center
12:25PM 39.2578 -119.2331 17° North 451 519 32,000  Level Oakland Center
12:26PM 39.3803 -119.1844 17° North 456 525 32,000  Level Oakland Center
12:27PM 39.5003 -119.1383 17° North 456 525 32,000  Level Oakland Center
12:28PM 39.6247 -119.0892 17° North 456 525 32,000  Level Oakland Center
12:29PM 39.7447 -119.0400 16° North 450 518 32,000  Level Oakland Center
12:30PM 39.8669 -118.9933 16° North 455 524 32,000  Level Oakland Center
12:31PM 39.9914 -118.9467 18° North 455 524 32,000  Level Oakland Center
12:32PM 40.1114 -118.8969 18° North 455 524 32,000  Level Oakland Center
12:32PM 40.1625 -118.8750 17° North 456 525 32,000  Level Salt Lake Center
12:33PM 40.2889 -118.8247 17° North 459 528 32,000  Level Salt Lake Center
12:34PM 40.4267 -118.7700 17° North 461 531 32,000  Level Salt Lake Center
12:35PM 40.5442 -118.7222 17° North 461 531 32,000  Level Salt Lake Center
12:36PM 40.6828 -118.6661 17° North 462 532 32,000  Level Salt Lake Center
12:37PM 40.8019 -118.6186 17° North 464 534 32,000  Level Salt Lake Center
12:38PM 40.9411 -118.5631 17° North 466 536 32,000  Level Salt Lake Center
12:39PM 41.0608 -118.5147 17° North 467 537 32,000  Level Salt Lake Center
12:41PM 41.1808 -118.4653 17° North 468 539 32,000  Level Salt Lake Center
12:42PM 41.3203 -118.4072 17° North 467 537 32,000  Level Salt Lake Center
12:43PM 41.4392 -118.3589 17° North 467 537 32,000  Level Salt Lake Center
12:44PM 41.5786 -118.3003 17° North 468 539 32,000  Level Salt Lake Center
12:45PM 41.6983 -118.2506 17° North 469 540 32,000  Level Salt Lake Center
12:46PM 41.8378 -118.1922 17° North 468 539 32,000  Level Salt Lake Center
12:47PM 41.9578 -118.1417 17° North 469 540 32,000  Level Salt Lake Center
12:48PM 42.0775 -118.0908 18° North 470 541 32,000  Level Salt Lake Center
12:49PM 42.2136 -118.0325 19° North 471 542 32,000  Level Salt Lake Center
12:50PM 42.3519 -117.9686 18° North 471 542 32,000  Level Salt Lake Center
12:51PM 42.4717 -117.9147 40° Northeast 473 544 32,000  Level Salt Lake Center
12:52PM 42.5828 -117.7858 48° Northeast 472 543 32,000 -60 Level Salt Lake Center
12:53PM 42.6661 -117.6578 49° Northeast 472 543 31,900 -1,440 Descending Salt Lake Center
12:54PM 42.7511 -117.5261 49° Northeast 480 552 29,100 -3,000 Descending Salt Lake Center
12:55PM 42.8503 -117.3689 49° Northeast 487 560 25,700 -3,000 Descending Salt Lake Center
12:56PM 42.9311 -117.2400 49° Northeast 469 540 22,900 -3,060 Descending Salt Lake Center
12:57PM 43.0189 -117.0994 49° Northeast 436 502 19,500 -2,880 Descending Salt Lake Center
12:58PM 43.0878 -116.9908 50° Northeast 393 452 17,100 -2,640 Descending Salt Lake Center
12:59PM 43.1614 -116.8719 52° Northeast 363 418 14,100 -2,040 Descending Salt Lake Center
01:00PM 43.2172 -116.7736 67° East 324 373 13,000 -1,440 Descending Salt Lake Center
01:01PM 43.2503 -116.6675 67° East 288 331 11,200 -1,860 Descending Salt Lake Center
01:02PM 43.2819 -116.5642 70° East 283 326 9,300 -1,800 Descending Salt Lake Center
01:03PM 43.3067 -116.4728 71° East 270 311 7,600 -1,140 Descending Salt Lake Center
01:04PM 43.3311 -116.3742 72° East 262 302 7,000 -300 Descending Salt Lake Center
01:05PM 43.3550 -116.2731 71° East 264 304 7,000 -540 Level Salt Lake Center
01:06PM 43.3794 -116.1756 71° East 260 299 5,900 -720 Descending Salt Lake Center
01:07PM 43.4000 -116.0953 38° Northeast 232 267 5,600 -180 Descending Salt Lake Center
01:08PM 43.4458 -116.0453 359° North 202 232 5,600  Level Salt Lake Center
01:09PM 43.4875 -116.0458 359° North 153 176 5,600  Level Salt Lake Center